Time;durP1;ratioP1;P1;durP2;ratioP2;P2;SDS_P1;SDS_P2;PMS_P1;PMS_P2;Temp;Humidity;BMP_temperature;BMP_pressure;BME280_temperature;BME280_humidity;BME280_pressure;Samples;Min_cycle;Max_cycle;Signal;HPM_P1;HPM_P2
2022/04/08 00:01:01;;;;;;;;;0.00;0.00;;;;;;;;5096541;27;45513;-72
2022/04/08 00:03:26;;;;;;;;;0.00;0.00;;;;;;;;5094178;27;47026;-72
2022/04/08 00:05:52;;;;;;;;;1.67;0.00;;;;;;;;5091616;27;45374;-72
2022/04/08 00:08:18;;;;;;;;;0.67;0.00;;;;;;;;5092923;27;45280;-71
2022/04/08 00:10:43;;;;;;;;;0.00;0.00;;;;;;;;5094184;27;45271;-72
2022/04/08 00:13:08;;;;;;;;;0.00;0.00;;;;;;;;5084517;27;45665;-72
2022/04/08 00:15:36;;;;;;;;;0.00;0.00;;;;;;;;5093882;27;45339;-73
2022/04/08 00:18:01;;;;;;;;;0.00;0.00;;;;;;;;5089987;27;45546;-72
2022/04/08 00:20:26;;;;;;;;;0.00;0.00;;;;;;;;5090902;27;45293;-72
2022/04/08 00:22:52;;;;;;;;;3.00;0.00;;;;;;;;5088122;27;46701;-73
2022/04/08 00:25:17;;;;;;;;;0.00;0.00;;;;;;;;5086529;27;45482;-73
2022/04/08 00:27:43;;;;;;;;;0.00;0.00;;;;;;;;5089747;27;45475;-72
2022/04/08 00:30:08;;;;;;;;;0.00;0.00;;;;;;;;5092453;27;45520;-72
2022/04/08 00:32:34;;;;;;;;;0.00;0.00;;;;;;;;5084860;27;45597;-72
2022/04/08 00:34:59;;;;;;;;;0.00;0.00;;;;;;;;5086743;27;45525;-72
2022/04/08 00:37:25;;;;;;;;;0.33;0.33;;;;;;;;5093153;27;45516;-73
2022/04/08 00:39:50;;;;;;;;;0.00;0.00;;;;;;;;5093864;27;45503;-73
2022/04/08 00:42:15;;;;;;;;;1.00;1.00;;;;;;;;5093655;27;46507;-73
2022/04/08 00:44:40;;;;;;;;;0.00;0.00;;;;;;;;5091352;27;45433;-72
2022/04/08 00:47:06;;;;;;;;;0.00;0.00;;;;;;;;5093691;27;46150;-73
2022/04/08 00:49:32;;;;;;;;;1.00;1.00;;;;;;;;5085097;27;45360;-72
2022/04/08 00:51:59;;;;;;;;;0.00;0.00;;;;;;;;5099203;27;46637;-73
2022/04/08 00:54:24;;;;;;;;;0.00;0.00;;;;;;;;5094733;27;45617;-72
2022/04/08 00:56:49;;;;;;;;;0.00;0.00;;;;;;;;5095494;27;45496;-72
2022/04/08 00:59:15;;;;;;;;;0.33;0.33;;;;;;;;5096452;27;45403;-73
2022/04/08 01:01:40;;;;;;;;;0.33;0.00;;;;;;;;5081631;27;46236;-73
2022/04/08 01:04:07;;;;;;;;;0.00;0.00;;;;;;;;5098755;27;45315;-72
2022/04/08 01:06:32;;;;;;;;;1.25;0.00;;;;;;;;5097325;27;45409;-72
2022/04/08 01:08:57;;;;;;;;;0.00;0.00;;;;;;;;5096169;27;45484;-72
2022/04/08 01:11:23;;;;;;;;;0.75;0.75;;;;;;;;5096195;27;45457;-72
2022/04/08 01:13:49;;;;;;;;;0.00;0.00;;;;;;;;5096768;27;45390;-72
2022/04/08 01:16:15;;;;;;;;;1.25;0.75;;;;;;;;5097482;27;45425;-72
2022/04/08 01:18:40;;;;;;;;;1.00;0.00;;;;;;;;5077120;27;45386;-72
2022/04/08 01:21:06;;;;;;;;;1.00;0.00;;;;;;;;5094331;27;46737;-73
2022/04/08 01:23:32;;;;;;;;;0.25;0.25;;;;;;;;5096385;27;45282;-72
2022/04/08 01:25:58;;;;;;;;;1.00;0.00;;;;;;;;5096782;27;45650;-72
2022/04/08 01:28:25;;;;;;;;;1.00;0.00;;;;;;;;5096423;27;45250;-72
2022/04/08 01:30:50;;;;;;;;;0.00;0.00;;;;;;;;5099016;27;45619;-72
2022/04/08 01:33:15;;;;;;;;;0.67;0.00;;;;;;;;5093065;27;45579;-72
2022/04/08 01:35:41;;;;;;;;;2.00;0.00;;;;;;;;5096546;27;45489;-72
2022/04/08 01:38:06;;;;;;;;;0.75;0.75;;;;;;;;5095792;27;45356;-72
2022/04/08 01:40:31;;;;;;;;;1.00;0.00;;;;;;;;5096599;27;45782;-72
2022/04/08 01:42:57;;;;;;;;;0.00;0.00;;;;;;;;5079643;27;45524;-72
2022/04/08 01:45:22;;;;;;;;;0.00;0.00;;;;;;;;5098409;27;45627;-72
2022/04/08 01:47:47;;;;;;;;;0.00;0.00;;;;;;;;5096508;27;46029;-72
2022/04/08 01:50:18;;;;;;;;;0.25;0.25;;;;;;;;5094152;27;45896;-72
2022/04/08 01:52:43;;;;;;;;;1.00;0.00;;;;;;;;5096631;27;45473;-72
2022/04/08 01:55:08;;;;;;;;;0.00;0.00;;;;;;;;5097108;27;45630;-73
2022/04/08 01:57:34;;;;;;;;;0.00;0.00;;;;;;;;5065336;28;45337;-72
2022/04/08 01:59:59;;;;;;;;;1.67;0.00;;;;;;;;5095138;27;45696;-72
2022/04/08 02:02:24;;;;;;;;;0.00;0.00;;;;;;;;5093794;27;45513;-72
2022/04/08 02:04:50;;;;;;;;;0.67;0.00;;;;;;;;5095259;27;45444;-72
2022/04/08 02:07:15;;;;;;;;;2.00;0.00;;;;;;;;5097084;27;45360;-72
2022/04/08 02:09:40;;;;;;;;;0.00;0.00;;;;;;;;5090789;27;45602;-72
2022/04/08 02:12:06;;;;;;;;;0.00;0.00;;;;;;;;5093990;27;45359;-72
2022/04/08 02:14:31;;;;;;;;;0.00;0.00;;;;;;;;5094062;27;45492;-72
2022/04/08 02:16:57;;;;;;;;;0.00;0.00;;;;;;;;5095966;27;45507;-72
2022/04/08 02:19:23;;;;;;;;;1.00;0.00;;;;;;;;5095091;27;46154;-72
2022/04/08 02:21:48;;;;;;;;;1.00;1.00;;;;;;;;5096578;27;45278;-73
2022/04/08 02:24:13;;;;;;;;;0.00;0.00;;;;;;;;5095395;27;45379;-72
2022/04/08 02:26:39;;;;;;;;;2.00;0.00;;;;;;;;5095888;27;45380;-72
2022/04/08 02:29:05;;;;;;;;;0.00;0.00;;;;;;;;5092829;27;47167;-72
2022/04/08 02:31:30;;;;;;;;;0.00;0.00;;;;;;;;5090213;27;45316;-73
2022/04/08 02:33:55;;;;;;;;;1.00;0.00;;;;;;;;5098030;27;45390;-72
2022/04/08 02:36:20;;;;;;;;;0.00;0.00;;;;;;;;5093569;27;45443;-72
2022/04/08 02:38:45;;;;;;;;;0.00;0.00;;;;;;;;5095353;27;46072;-72
2022/04/08 02:41:11;;;;;;;;;0.00;0.00;;;;;;;;5093252;27;45479;-73
2022/04/08 02:43:36;;;;;;;;;0.00;0.00;;;;;;;;5095721;27;45276;-72
2022/04/08 02:46:01;;;;;;;;;0.00;0.00;;;;;;;;5098019;27;45303;-72
2022/04/08 02:48:26;;;;;;;;;0.00;0.00;;;;;;;;5094371;27;45737;-72
2022/04/08 02:50:52;;;;;;;;;0.00;0.00;;;;;;;;5093766;27;45399;-72
2022/04/08 02:53:17;;;;;;;;;0.00;0.00;;;;;;;;5094227;27;45952;-72
2022/04/08 02:55:42;;;;;;;;;0.00;0.00;;;;;;;;5089485;27;45530;-73
2022/04/08 02:58:07;;;;;;;;;1.75;0.00;;;;;;;;5096103;27;46480;-73
2022/04/08 03:00:33;;;;;;;;;0.00;0.00;;;;;;;;5095864;27;45387;-72
2022/04/08 03:02:58;;;;;;;;;0.00;0.00;;;;;;;;5091278;27;45433;-73
2022/04/08 03:05:23;;;;;;;;;0.00;0.00;;;;;;;;5093723;27;45374;-73
2022/04/08 03:07:49;;;;;;;;;0.00;0.00;;;;;;;;5081788;27;46564;-72
2022/04/08 03:10:14;;;;;;;;;0.00;0.00;;;;;;;;5096192;27;45161;-73
2022/04/08 03:12:40;;;;;;;;;1.50;0.00;;;;;;;;5096989;27;45218;-72
2022/04/08 03:15:05;;;;;;;;;1.00;0.00;;;;;;;;5092569;27;45507;-72
2022/04/08 03:17:31;;;;;;;;;1.00;0.00;;;;;;;;5094510;27;46433;-73
2022/04/08 03:19:56;;;;;;;;;0.00;0.00;;;;;;;;5092214;27;45477;-72
2022/04/08 03:22:22;;;;;;;;;1.25;0.00;;;;;;;;5094908;27;45479;-72
2022/04/08 03:24:47;;;;;;;;;0.00;0.00;;;;;;;;5097009;27;45387;-73
2022/04/08 03:27:13;;;;;;;;;0.00;0.00;;;;;;;;5094570;27;45477;-72
2022/04/08 03:29:38;;;;;;;;;0.00;0.00;;;;;;;;5093460;27;45524;-72
2022/04/08 03:32:05;;;;;;;;;0.75;0.50;;;;;;;;5093099;27;45472;-72
2022/04/08 03:34:30;;;;;;;;;0.00;0.00;;;;;;;;5094087;27;45622;-72
2022/04/08 03:36:55;;;;;;;;;0.00;0.00;;;;;;;;5096112;27;47366;-73
2022/04/08 03:39:22;;;;;;;;;0.33;0.00;;;;;;;;5092834;27;45329;-73
2022/04/08 03:41:48;;;;;;;;;0.25;0.00;;;;;;;;5093249;27;45454;-72
2022/04/08 03:44:13;;;;;;;;;0.00;0.00;;;;;;;;5089242;27;45335;-72
2022/04/08 03:46:38;;;;;;;;;1.00;0.00;;;;;;;;5094479;27;46511;-72
2022/04/08 03:49:11;;;;;;;;;0.00;0.00;;;;;;;;5096106;27;45485;-72
2022/04/08 03:51:36;;;;;;;;;0.00;0.00;;;;;;;;5095339;27;45347;-72
2022/04/08 03:54:02;;;;;;;;;0.00;0.00;;;;;;;;5092145;27;45394;-72
2022/04/08 03:56:27;;;;;;;;;0.50;0.00;;;;;;;;5095185;27;46500;-72
2022/04/08 03:58:53;;;;;;;;;0.00;0.00;;;;;;;;5091785;27;45430;-72
2022/04/08 04:01:18;;;;;;;;;0.00;0.00;;;;;;;;5094911;27;45279;-72
2022/04/08 04:03:43;;;;;;;;;1.00;0.00;;;;;;;;5093637;27;45267;-72
2022/04/08 04:06:09;;;;;;;;;1.00;0.00;;;;;;;;5093083;27;46147;-73
2022/04/08 04:08:35;;;;;;;;;0.00;0.00;;;;;;;;5091601;27;45518;-72
2022/04/08 04:11:00;;;;;;;;;2.00;0.00;;;;;;;;5092539;27;45290;-72
2022/04/08 04:13:25;;;;;;;;;0.00;0.00;;;;;;;;5095041;27;45569;-73
2022/04/08 04:15:50;;;;;;;;;1.75;0.00;;;;;;;;5091268;27;46594;-72
2022/04/08 04:18:16;;;;;;;;;0.67;0.33;;;;;;;;5091973;27;45603;-72
2022/04/08 04:20:41;;;;;;;;;0.00;0.00;;;;;;;;5091652;27;45519;-72
2022/04/08 04:23:06;;;;;;;;;0.00;0.00;;;;;;;;5094445;27;45442;-72
2022/04/08 04:25:31;;;;;;;;;0.33;0.00;;;;;;;;5095116;27;46478;-72
2022/04/08 04:27:59;;;;;;;;;0.00;0.00;;;;;;;;5099646;27;45409;-72
2022/04/08 04:30:26;;;;;;;;;0.33;0.00;;;;;;;;5097513;27;45584;-72
2022/04/08 04:32:53;;;;;;;;;0.00;0.00;;;;;;;;5096261;27;45442;-72
2022/04/08 04:35:18;;;;;;;;;0.00;0.00;;;;;;;;5085471;27;46618;-71
2022/04/08 04:37:43;;;;;;;;;0.00;0.00;;;;;;;;5097377;27;45370;-72
2022/04/08 04:40:09;;;;;;;;;0.00;0.00;;;;;;;;5099040;27;45327;-72
2022/04/08 04:42:34;;;;;;;;;1.00;0.00;;;;;;;;5098090;27;45487;-72
2022/04/08 04:44:59;;;;;;;;;0.00;0.00;;;;;;;;5095010;27;45466;-71
2022/04/08 04:47:24;;;;;;;;;1.00;0.00;;;;;;;;5097956;27;45462;-72
2022/04/08 04:49:50;;;;;;;;;0.00;0.00;;;;;;;;5095775;27;45488;-72
2022/04/08 04:52:15;;;;;;;;;0.00;0.00;;;;;;;;5097933;27;45162;-72
2022/04/08 04:54:41;;;;;;;;;0.00;0.00;;;;;;;;5098489;27;45433;-71
2022/04/08 04:57:06;;;;;;;;;2.50;0.00;;;;;;;;5097692;27;45457;-72
2022/04/08 04:59:31;;;;;;;;;0.00;0.00;;;;;;;;5096149;27;45501;-72
2022/04/08 05:01:56;;;;;;;;;1.00;0.00;;;;;;;;5095641;27;45478;-72
2022/04/08 05:04:22;;;;;;;;;1.00;1.00;;;;;;;;5096832;27;47030;-72
2022/04/08 05:06:47;;;;;;;;;2.00;0.00;;;;;;;;5087589;27;45280;-72
2022/04/08 05:09:12;;;;;;;;;0.25;0.00;;;;;;;;5092942;27;45417;-72
2022/04/08 05:11:37;;;;;;;;;1.00;0.00;;;;;;;;5091334;27;45473;-71
2022/04/08 05:14:03;;;;;;;;;0.00;0.00;;;;;;;;5096565;27;46602;-72
2022/04/08 05:16:28;;;;;;;;;0.00;0.00;;;;;;;;5096044;27;45287;-72
2022/04/08 05:18:54;;;;;;;;;0.00;0.00;;;;;;;;5098639;27;45350;-71
2022/04/08 05:21:19;;;;;;;;;1.00;1.00;;;;;;;;5095162;27;45441;-72
2022/04/08 05:23:44;;;;;;;;;3.00;0.00;;;;;;;;5079336;27;47357;-72
2022/04/08 05:26:09;;;;;;;;;0.00;0.00;;;;;;;;5094755;27;45358;-72
2022/04/08 05:28:35;;;;;;;;;0.00;0.00;;;;;;;;5083041;27;45322;-72
2022/04/08 05:31:00;;;;;;;;;0.00;0.00;;;;;;;;5098647;27;45300;-72
2022/04/08 05:33:25;;;;;;;;;0.00;0.00;;;;;;;;5096063;27;47073;-72
2022/04/08 05:35:51;;;;;;;;;0.00;0.00;;;;;;;;5096075;27;45480;-72
2022/04/08 05:38:16;;;;;;;;;0.00;0.00;;;;;;;;5095310;27;45339;-72
2022/04/08 05:40:42;;;;;;;;;1.00;0.00;;;;;;;;5094937;27;45497;-72
2022/04/08 05:43:07;;;;;;;;;0.33;0.00;;;;;;;;5097709;27;46046;-72
2022/04/08 05:45:33;;;;;;;;;0.00;0.00;;;;;;;;5094459;27;45248;-72
2022/04/08 05:48:01;;;;;;;;;0.00;0.00;;;;;;;;5094141;27;45430;-72
2022/04/08 05:50:26;;;;;;;;;0.33;0.00;;;;;;;;5091996;27;45660;-72
2022/04/08 05:52:52;;;;;;;;;0.00;0.00;;;;;;;;5081711;27;45943;-72
2022/04/08 05:55:17;;;;;;;;;0.00;0.00;;;;;;;;5096815;27;45724;-72
2022/04/08 05:57:42;;;;;;;;;0.75;0.75;;;;;;;;5095605;27;45393;-72
2022/04/08 06:00:10;;;;;;;;;2.00;0.00;;;;;;;;5091379;27;45354;-71
2022/04/08 06:02:35;;;;;;;;;0.00;0.00;;;;;;;;5079027;27;48408;-72
2022/04/08 06:05:01;;;;;;;;;0.00;0.00;;;;;;;;5095883;27;45557;-71
2022/04/08 06:07:26;;;;;;;;;0.00;0.00;;;;;;;;5095548;27;45524;-72
2022/04/08 06:09:52;;;;;;;;;0.00;0.00;;;;;;;;5097277;27;45397;-72
2022/04/08 06:12:17;;;;;;;;;1.00;0.00;;;;;;;;5093002;27;45557;-72
2022/04/08 06:14:42;;;;;;;;;0.00;0.00;;;;;;;;5093993;27;45497;-72
2022/04/08 06:17:07;;;;;;;;;1.25;0.75;;;;;;;;5074584;27;45482;-72
2022/04/08 06:19:33;;;;;;;;;0.00;0.00;;;;;;;;5090907;27;45439;-72
2022/04/08 06:21:59;;;;;;;;;0.00;0.00;;;;;;;;5097707;27;45381;-72
2022/04/08 06:24:24;;;;;;;;;1.00;0.00;;;;;;;;5095154;27;45422;-72
2022/04/08 06:26:49;;;;;;;;;0.25;0.25;;;;;;;;5094822;27;45324;-74
2022/04/08 06:29:15;;;;;;;;;0.00;0.00;;;;;;;;5095746;27;46175;-72
2022/04/08 06:31:40;;;;;;;;;0.50;0.00;;;;;;;;5096475;27;45416;-72
2022/04/08 06:34:05;;;;;;;;;0.00;0.00;;;;;;;;5092324;27;45396;-72
2022/04/08 06:36:30;;;;;;;;;0.00;0.00;;;;;;;;5097537;27;45454;-72
2022/04/08 06:38:55;;;;;;;;;0.75;0.75;;;;;;;;5095610;27;45537;-72
2022/04/08 06:41:21;;;;;;;;;1.00;1.00;;;;;;;;5095064;27;46523;-71
2022/04/08 06:43:46;;;;;;;;;0.00;0.00;;;;;;;;5095607;27;45275;-72
2022/04/08 06:46:11;;;;;;;;;1.00;0.00;;;;;;;;5096825;27;45676;-72
2022/04/08 06:48:37;;;;;;;;;0.00;0.00;;;;;;;;5096011;27;45457;-72
2022/04/08 06:51:04;;;;;;;;;0.00;0.00;;;;;;;;5095246;27;45382;-72
2022/04/08 06:53:29;;;;;;;;;1.25;1.00;;;;;;;;5077951;27;45521;-72
2022/04/08 06:55:54;;;;;;;;;0.50;0.50;;;;;;;;5093304;27;45438;-71
2022/04/08 06:58:20;;;;;;;;;0.00;0.00;;;;;;;;5095767;27;45450;-72
2022/04/08 07:00:45;;;;;;;;;0.00;0.00;;;;;;;;5095557;27;46429;-72
2022/04/08 07:03:10;;;;;;;;;0.00;0.00;;;;;;;;5094728;27;45330;-72
2022/04/08 07:05:35;;;;;;;;;0.00;0.00;;;;;;;;5093010;27;45374;-72
2022/04/08 07:08:01;;;;;;;;;1.00;0.00;;;;;;;;5094816;27;45493;-71
2022/04/08 07:10:26;;;;;;;;;0.00;0.00;;;;;;;;5093312;27;45261;-72
2022/04/08 07:12:51;;;;;;;;;2.00;0.25;;;;;;;;5096084;27;45426;-71
2022/04/08 07:15:16;;;;;;;;;0.25;0.00;;;;;;;;5093891;27;45351;-72
2022/04/08 07:17:42;;;;;;;;;0.00;0.00;;;;;;;;5094737;27;45207;-72
2022/04/08 07:20:07;;;;;;;;;0.00;0.00;;;;;;;;5093115;27;45879;-72
2022/04/08 07:22:33;;;;;;;;;0.75;0.00;;;;;;;;5078599;27;45283;-72
2022/04/08 07:24:58;;;;;;;;;1.00;1.00;;;;;;;;5096948;27;45291;-71
2022/04/08 07:27:23;;;;;;;;;0.00;0.00;;;;;;;;5094703;27;45295;-71
2022/04/08 07:29:49;;;;;;;;;0.75;0.00;;;;;;;;5094373;27;45485;-71
2022/04/08 07:32:20;;;;;;;;;1.50;1.50;;;;;;;;5093951;27;45564;-71
2022/04/08 07:34:52;;;;;;;;;0.00;0.00;;;;;;;;5088500;27;45796;-71
2022/04/08 07:37:27;;;;;;;;;0.75;0.00;;;;;;;;5085638;27;45533;-71
2022/04/08 07:39:52;;;;;;;;;0.50;0.00;;;;;;;;5088560;27;45629;-77
2022/04/08 07:42:18;;;;;;;;;0.00;0.00;;;;;;;;5089255;27;45302;-78
2022/04/08 07:44:43;;;;;;;;;0.33;0.00;;;;;;;;5086441;27;45426;-70
2022/04/08 07:47:08;;;;;;;;;0.00;0.00;;;;;;;;5087847;27;45549;-69
2022/04/08 07:49:33;;;;;;;;;0.00;0.00;;;;;;;;5088235;27;46384;-68
2022/04/08 07:51:59;;;;;;;;;0.00;0.00;;;;;;;;5095510;27;45417;-68
2022/04/08 07:54:24;;;;;;;;;1.00;0.00;;;;;;;;5091225;27;45616;-67
2022/04/08 07:56:49;;;;;;;;;0.00;0.00;;;;;;;;5092770;27;45676;-69
2022/04/08 07:59:14;;;;;;;;;0.00;0.00;;;;;;;;5095387;27;46612;-68
2022/04/08 08:01:39;;;;;;;;;0.33;0.33;;;;;;;;5088229;27;45605;-68
2022/04/08 08:04:05;;;;;;;;;0.00;0.00;;;;;;;;5095674;27;45382;-70
2022/04/08 08:06:30;;;;;;;;;0.00;0.00;;;;;;;;5087249;27;45363;-67
2022/04/08 08:08:55;;;;;;;;;0.50;0.00;;;;;;;;5091989;27;45530;-68
2022/04/08 08:11:20;;;;;;;;;0.00;0.00;;;;;;;;5071493;27;45478;-69
2022/04/08 08:13:46;;;;;;;;;0.00;0.00;;;;;;;;5087155;27;45367;-69
2022/04/08 08:16:11;;;;;;;;;0.00;0.00;;;;;;;;5081374;27;45508;-69
2022/04/08 08:18:36;;;;;;;;;0.00;0.00;;;;;;;;5094668;27;46532;-70
2022/04/08 08:21:01;;;;;;;;;0.00;0.00;;;;;;;;5089093;27;48542;-69
2022/04/08 08:23:27;;;;;;;;;0.00;0.00;;;;;;;;5087836;27;45382;-69
2022/04/08 08:25:52;;;;;;;;;0.00;0.00;;;;;;;;5090553;27;45321;-69
2022/04/08 08:28:18;;;;;;;;;0.00;0.00;;;;;;;;5090656;27;45353;-67
2022/04/08 08:30:44;;;;;;;;;0.00;0.00;;;;;;;;5095012;27;45259;-70
2022/04/08 08:33:10;;;;;;;;;1.00;0.00;;;;;;;;5082185;27;45418;-68
2022/04/08 08:35:35;;;;;;;;;0.00;0.00;;;;;;;;5083274;27;45453;-73
2022/04/08 08:38:00;;;;;;;;;0.00;0.00;;;;;;;;5091999;27;45639;-73
2022/04/08 08:40:28;;;;;;;;;1.00;0.00;;;;;;;;5079415;27;45261;-73
2022/04/08 08:42:53;;;;;;;;;0.00;0.00;;;;;;;;5096196;27;45387;-73
2022/04/08 08:45:18;;;;;;;;;1.00;1.00;;;;;;;;5095482;27;45442;-73
2022/04/08 08:47:48;;;;;;;;;0.00;0.00;;;;;;;;5093633;27;46091;-73
2022/04/08 08:50:13;;;;;;;;;1.33;0.33;;;;;;;;5090301;27;45350;-73
2022/04/08 08:52:39;;;;;;;;;0.33;0.00;;;;;;;;5093125;27;45451;-74
2022/04/08 08:55:05;;;;;;;;;1.00;1.00;;;;;;;;5089367;27;45295;-73
2022/04/08 08:57:30;;;;;;;;;0.00;0.00;;;;;;;;5090861;27;45584;-73
2022/04/08 09:00:07;;;;;;;;;0.00;0.00;;;;;;;;5092838;27;48738;-74
2022/04/08 09:02:32;;;;;;;;;0.00;0.00;;;;;;;;5088456;27;45443;-74
2022/04/08 09:04:57;;;;;;;;;0.00;0.00;;;;;;;;5091827;27;45362;-73
2022/04/08 09:07:22;;;;;;;;;0.25;0.00;;;;;;;;5093225;27;45459;-73
2022/04/08 09:09:57;;;;;;;;;0.00;0.00;;;;;;;;5094727;27;45372;-73
2022/04/08 09:12:27;;;;;;;;;0.00;0.00;;;;;;;;5092898;27;45462;-73
2022/04/08 09:14:56;;;;;;;;;3.00;0.00;;;;;;;;5093008;27;45545;-73
2022/04/08 09:17:23;;;;;;;;;0.00;0.00;;;;;;;;5095239;27;45429;-73
2022/04/08 09:19:52;;;;;;;;;0.00;0.00;;;;;;;;5093628;27;45719;-74
2022/04/08 09:22:18;;;;;;;;;0.00;0.00;;;;;;;;5096569;27;45307;-74
2022/04/08 09:24:44;;;;;;;;;0.25;0.00;;;;;;;;5095964;27;45354;-74
2022/04/08 09:27:12;;;;;;;;;1.00;0.00;;;;;;;;5088132;27;45289;-73
2022/04/08 09:29:41;;;;;;;;;0.75;0.00;;;;;;;;5089139;27;45530;-73
2022/04/08 09:32:10;;;;;;;;;0.25;0.25;;;;;;;;5094127;27;45364;-73
2022/04/08 09:34:35;;;;;;;;;1.00;0.00;;;;;;;;5081746;27;45425;-74
2022/04/08 09:37:11;;;;;;;;;0.00;0.00;;;;;;;;5085576;27;46456;-73
2022/04/08 09:39:37;;;;;;;;;0.00;0.00;;;;;;;;5093390;27;45454;-73
2022/04/08 09:42:06;;;;;;;;;0.00;0.00;;;;;;;;5094966;27;45690;-73
2022/04/08 09:44:35;;;;;;;;;1.00;0.00;;;;;;;;5088152;27;45567;-73
2022/04/08 09:47:00;;;;;;;;;1.00;0.00;;;;;;;;5094074;27;47210;-73
2022/04/08 09:49:25;;;;;;;;;0.50;0.00;;;;;;;;5095659;27;45323;-73
2022/04/08 09:51:51;;;;;;;;;0.00;0.00;;;;;;;;5085626;27;45349;-73
2022/04/08 09:54:19;;;;;;;;;2.00;0.00;;;;;;;;5093470;27;45526;-73
2022/04/08 09:56:45;;;;;;;;;0.00;0.00;;;;;;;;5094421;27;46378;-73
2022/04/08 09:59:14;;;;;;;;;0.00;0.00;;;;;;;;5095342;27;45469;-73
2022/04/08 10:01:40;;;;;;;;;0.75;0.00;;;;;;;;5095890;27;45335;-73
2022/04/08 10:04:09;;;;;;;;;0.00;0.00;;;;;;;;5097764;27;45645;-74
2022/04/08 10:06:35;;;;;;;;;0.00;0.00;;;;;;;;5094598;27;46764;-73
2022/04/08 10:09:01;;;;;;;;;0.00;0.00;;;;;;;;5095249;27;45532;-73
2022/04/08 10:11:45;;;;;;;;;0.75;0.75;;;;;;;;5095194;27;45445;-73
2022/04/08 10:14:17;;;;;;;;;0.00;0.00;;;;;;;;5094938;27;45851;-73
2022/04/08 10:16:43;;;;;;;;;0.00;0.00;;;;;;;;5092605;27;46345;-74
2022/04/08 10:19:11;;;;;;;;;2.00;0.00;;;;;;;;5096842;27;45391;-74
2022/04/08 10:21:38;;;;;;;;;1.00;1.00;;;;;;;;5091241;27;45449;-73
2022/04/08 10:24:08;;;;;;;;;0.00;0.00;;;;;;;;5090800;27;45229;-73
2022/04/08 10:26:33;;;;;;;;;0.00;0.00;;;;;;;;5087595;27;47332;-73
2022/04/08 10:29:08;;;;;;;;;2.00;0.50;;;;;;;;5095555;27;45412;-73
2022/04/08 10:31:34;;;;;;;;;1.75;1.00;;;;;;;;5085534;27;45429;-73
2022/04/08 10:34:00;;;;;;;;;0.75;0.75;;;;;;;;5097111;27;45350;-73
2022/04/08 10:36:34;;;;;;;;;1.00;1.00;;;;;;;;5077972;27;47052;-73
2022/04/08 10:39:28;;;;;;;;;0.25;0.25;;;;;;;;5093226;27;45431;-73
2022/04/08 10:41:56;;;;;;;;;1.00;0.00;;;;;;;;5073999;27;45445;-72
2022/04/08 10:44:32;;;;;;;;;1.00;0.00;;;;;;;;5094759;27;45425;-71
2022/04/08 10:46:59;;;;;;;;;1.00;0.00;;;;;;;;5095068;27;46556;-71
2022/04/08 10:49:24;;;;;;;;;0.25;0.00;;;;;;;;5094795;27;45489;-72
2022/04/08 10:51:50;;;;;;;;;0.00;0.00;;;;;;;;5095381;27;45445;-71
2022/04/08 10:54:16;;;;;;;;;1.25;0.00;;;;;;;;5092507;27;45406;-72
2022/04/08 10:56:41;;;;;;;;;0.00;0.00;;;;;;;;5092996;27;45387;-73
2022/04/08 10:59:07;;;;;;;;;0.25;0.25;;;;;;;;5093408;27;45533;-72
2022/04/08 11:01:35;;;;;;;;;1.00;0.00;;;;;;;;5094013;27;45299;-72
2022/04/08 11:04:02;;;;;;;;;0.25;0.25;;;;;;;;5097188;27;45350;-72
2022/04/08 11:06:27;;;;;;;;;0.00;0.00;;;;;;;;5086596;27;47439;-72
2022/04/08 11:08:53;;;;;;;;;0.00;0.00;;;;;;;;5087733;27;45456;-71
2022/04/08 11:11:28;;;;;;;;;0.75;0.00;;;;;;;;5093077;27;45407;-72
2022/04/08 11:13:57;;;;;;;;;0.25;0.25;;;;;;;;5092530;27;45478;-72
2022/04/08 11:16:22;;;;;;;;;1.00;0.00;;;;;;;;5094322;27;46049;-72
2022/04/08 11:18:48;;;;;;;;;0.25;0.25;;;;;;;;5096327;27;45426;-73
2022/04/08 11:21:18;;;;;;;;;1.00;0.00;;;;;;;;5094633;27;45454;-72
2022/04/08 11:23:43;;;;;;;;;0.00;0.00;;;;;;;;5092455;27;45547;-73
2022/04/08 11:26:11;;;;;;;;;0.00;0.00;;;;;;;;5092741;27;46148;-73
2022/04/08 11:28:36;;;;;;;;;0.00;0.00;;;;;;;;5078356;27;45350;-72
2022/04/08 11:31:02;;;;;;;;;0.00;0.00;;;;;;;;5092052;27;45352;-72
2022/04/08 11:33:30;;;;;;;;;0.00;0.00;;;;;;;;5094090;27;45233;-72
2022/04/08 11:35:57;;;;;;;;;1.25;0.00;;;;;;;;5092165;27;46417;-73
2022/04/08 11:38:23;;;;;;;;;0.00;0.00;;;;;;;;5093757;27;45632;-73
2022/04/08 11:40:49;;;;;;;;;0.00;0.00;;;;;;;;5094229;27;45245;-73
2022/04/08 11:43:15;;;;;;;;;0.00;0.00;;;;;;;;5092948;27;45352;-73
2022/04/08 11:45:40;;;;;;;;;1.00;0.00;;;;;;;;5095746;27;47336;-72
2022/04/08 11:48:06;;;;;;;;;3.00;0.75;;;;;;;;5093568;27;45319;-72
2022/04/08 11:50:35;;;;;;;;;1.00;1.00;;;;;;;;5092753;27;45486;-72
2022/04/08 11:53:01;;;;;;;;;0.00;0.00;;;;;;;;5092745;27;45579;-72
2022/04/08 11:55:27;;;;;;;;;0.00;0.00;;;;;;;;5094315;27;46135;-72
2022/04/08 11:57:52;;;;;;;;;0.67;0.00;;;;;;;;5096328;27;45240;-72
2022/04/08 12:00:23;;;;;;;;;1.33;0.00;;;;;;;;5092442;27;45477;-73
2022/04/08 12:02:48;;;;;;;;;0.00;0.00;;;;;;;;5092753;27;45408;-72
2022/04/08 12:05:18;;;;;;;;;0.67;0.00;;;;;;;;5092066;27;45807;-72
2022/04/08 12:07:44;;;;;;;;;0.00;0.00;;;;;;;;5093785;27;45503;-72
2022/04/08 12:10:09;;;;;;;;;0.00;0.00;;;;;;;;5095129;27;45370;-72
2022/04/08 12:12:35;;;;;;;;;0.00;0.00;;;;;;;;5095385;27;45470;-72
2022/04/08 12:15:09;;;;;;;;;0.00;0.00;;;;;;;;5085570;27;47178;-71
2022/04/08 12:17:38;;;;;;;;;0.00;0.00;;;;;;;;5087333;27;45463;-73
2022/04/08 12:20:03;;;;;;;;;1.25;0.00;;;;;;;;5095689;27;45359;-72
2022/04/08 12:22:32;;;;;;;;;0.00;0.00;;;;;;;;5094495;27;45527;-72
2022/04/08 12:24:58;;;;;;;;;0.00;0.00;;;;;;;;5095991;27;46610;-72
2022/04/08 12:27:24;;;;;;;;;0.75;0.00;;;;;;;;5093705;27;45559;-71
2022/04/08 12:29:59;;;;;;;;;0.00;0.00;;;;;;;;5091790;27;45462;-71
2022/04/08 12:32:32;;;;;;;;;1.00;0.00;;;;;;;;5092102;27;45473;-71
2022/04/08 12:34:57;;;;;;;;;0.00;0.00;;;;;;;;5091685;27;47297;-72
2022/04/08 12:37:22;;;;;;;;;0.67;0.00;;;;;;;;5094739;27;45381;-72
2022/04/08 12:39:47;;;;;;;;;0.00;0.00;;;;;;;;5096151;27;45510;-72
2022/04/08 12:42:13;;;;;;;;;0.00;0.00;;;;;;;;5091509;27;45459;-72
2022/04/08 12:44:38;;;;;;;;;1.00;0.00;;;;;;;;5091831;27;45304;-72
2022/04/08 12:47:04;;;;;;;;;1.00;0.00;;;;;;;;5095310;27;45395;-72
2022/04/08 12:49:29;;;;;;;;;0.00;0.00;;;;;;;;5096268;27;45370;-72
2022/04/08 12:51:54;;;;;;;;;0.00;0.00;;;;;;;;5098513;27;45517;-72
2022/04/08 12:54:19;;;;;;;;;2.00;0.33;;;;;;;;5095505;27;46310;-72
2022/04/08 12:56:45;;;;;;;;;0.00;0.00;;;;;;;;5097084;27;45385;-72
2022/04/08 12:59:10;;;;;;;;;0.00;0.00;;;;;;;;5096849;27;45447;-72
2022/04/08 13:01:36;;;;;;;;;0.00;0.00;;;;;;;;5094757;27;45940;-72
2022/04/08 13:04:01;;;;;;;;;1.33;0.00;;;;;;;;5098899;27;46389;-71
2022/04/08 13:06:27;;;;;;;;;0.33;0.33;;;;;;;;5095107;27;45422;-71
2022/04/08 13:08:52;;;;;;;;;0.00;0.00;;;;;;;;5097047;27;45295;-71
2022/04/08 13:11:17;;;;;;;;;3.00;1.00;;;;;;;;5096625;27;45474;-71
2022/04/08 13:13:42;;;;;;;;;0.00;0.00;;;;;;;;5096498;27;45610;-71
2022/04/08 13:16:08;;;;;;;;;2.00;0.00;;;;;;;;5098260;27;45292;-71
2022/04/08 13:18:33;;;;;;;;;0.00;0.00;;;;;;;;5096872;27;45502;-70
2022/04/08 13:20:58;;;;;;;;;1.50;0.00;;;;;;;;5095560;27;45477;-69
2022/04/08 13:23:23;;;;;;;;;0.33;0.33;;;;;;;;5094827;27;45360;-70
2022/04/08 13:25:49;;;;;;;;;0.00;0.00;;;;;;;;5094668;27;45298;-69
2022/04/08 13:28:16;;;;;;;;;1.00;0.00;;;;;;;;5097320;27;45318;-70
2022/04/08 13:30:41;;;;;;;;;0.67;0.00;;;;;;;;5098148;27;45460;-70
2022/04/08 13:33:07;;;;;;;;;1.00;1.00;;;;;;;;5095959;27;47440;-72
2022/04/08 13:35:32;;;;;;;;;0.67;0.33;;;;;;;;5094717;27;45430;-72
2022/04/08 13:37:58;;;;;;;;;1.75;0.75;;;;;;;;5096517;27;45242;-72
2022/04/08 13:40:23;;;;;;;;;1.00;1.00;;;;;;;;5096876;27;45212;-72
2022/04/08 13:42:49;;;;;;;;;0.00;0.00;;;;;;;;5096457;27;47500;-72
2022/04/08 13:45:14;;;;;;;;;0.67;0.00;;;;;;;;5094252;27;45427;-72
2022/04/08 13:47:39;;;;;;;;;0.00;0.00;;;;;;;;5095154;27;45440;-72
2022/04/08 13:50:05;;;;;;;;;1.00;1.00;;;;;;;;5079641;27;45316;-72
2022/04/08 13:52:31;;;;;;;;;0.00;0.00;;;;;;;;5096080;27;45676;-72
2022/04/08 13:54:56;;;;;;;;;0.00;0.00;;;;;;;;5098408;27;45272;-72
2022/04/08 13:57:21;;;;;;;;;1.00;0.00;;;;;;;;5095197;27;45588;-72
2022/04/08 13:59:47;;;;;;;;;1.00;0.00;;;;;;;;5094249;27;45303;-72
2022/04/08 14:02:13;;;;;;;;;0.00;0.00;;;;;;;;5094170;27;47154;-72
2022/04/08 14:04:39;;;;;;;;;1.00;1.00;;;;;;;;5094528;27;45510;-72
2022/04/08 14:07:04;;;;;;;;;2.50;0.25;;;;;;;;5097893;27;45462;-72
2022/04/08 14:09:29;;;;;;;;;0.00;0.00;;;;;;;;5093423;27;45433;-72
2022/04/08 14:11:54;;;;;;;;;0.00;0.00;;;;;;;;5095253;27;46553;-72
2022/04/08 14:14:20;;;;;;;;;0.00;0.00;;;;;;;;5093364;27;45719;-72
2022/04/08 14:16:45;;;;;;;;;0.00;0.00;;;;;;;;5093986;27;45441;-72
2022/04/08 14:19:10;;;;;;;;;0.00;0.00;;;;;;;;5097115;27;45453;-73
2022/04/08 14:21:35;;;;;;;;;0.00;0.00;;;;;;;;5097436;27;47181;-73
2022/04/08 14:24:01;;;;;;;;;1.00;0.00;;;;;;;;5095114;27;45402;-72
2022/04/08 14:26:26;;;;;;;;;1.25;1.00;;;;;;;;5093572;27;45556;-72
2022/04/08 14:28:51;;;;;;;;;0.25;0.00;;;;;;;;5093887;27;45561;-72
2022/04/08 14:31:18;;;;;;;;;0.00;0.00;;;;;;;;5096513;27;45287;-72
2022/04/08 14:33:43;;;;;;;;;1.25;1.25;;;;;;;;5094768;27;45399;-73
2022/04/08 14:36:08;;;;;;;;;1.67;0.33;;;;;;;;5094528;27;45462;-72